sensor_id;sensor_type;location;lat;lon;timestamp;P1;durP1;ratioP1;P2;durP2;ratioP2
1613;SDS011;800;48.824;9.346;2022-11-06T00:01:13;24.53;;;10.80;;
1613;SDS011;800;48.824;9.346;2022-11-06T00:03:39;20.40;;;10.30;;
1613;SDS011;800;48.824;9.346;2022-11-06T00:06:10;15.33;;;10.67;;
1613;SDS011;800;48.824;9.346;2022-11-06T00:08:59;13.73;;;9.90;;
1613;SDS011;800;48.824;9.346;2022-11-06T00:11:27;16.97;;;9.30;;
1613;SDS011;800;48.824;9.346;2022-11-06T00:13:52;19.37;;;9.60;;
1613;SDS011;800;48.824;9.346;2022-11-06T00:16:18;22.17;;;9.70;;
1613;SDS011;800;48.824;9.346;2022-11-06T00:18:44;52.40;;;11.17;;
1613;SDS011;800;48.824;9.346;2022-11-06T00:21:12;31.77;;;11.03;;
1613;SDS011;800;48.824;9.346;2022-11-06T00:23:39;24.90;;;9.03;;
1613;SDS011;800;48.824;9.346;2022-11-06T00:26:12;13.53;;;10.40;;
1613;SDS011;800;48.824;9.346;2022-11-06T00:28:39;43.73;;;9.83;;
1613;SDS011;800;48.824;9.346;2022-11-06T00:31:05;23.40;;;8.70;;
1613;SDS011;800;48.824;9.346;2022-11-06T00:33:33;10.57;;;9.47;;
1613;SDS011;800;48.824;9.346;2022-11-06T00:36:01;16.23;;;9.70;;
1613;SDS011;800;48.824;9.346;2022-11-06T00:38:28;10.70;;;8.73;;
1613;SDS011;800;48.824;9.346;2022-11-06T00:40:53;11.00;;;8.80;;
1613;SDS011;800;48.824;9.346;2022-11-06T00:43:19;11.87;;;9.20;;
1613;SDS011;800;48.824;9.346;2022-11-06T00:45:44;12.23;;;9.10;;
1613;SDS011;800;48.824;9.346;2022-11-06T00:48:10;9.97;;;8.87;;
1613;SDS011;800;48.824;9.346;2022-11-06T00:50:36;14.27;;;10.00;;
1613;SDS011;800;48.824;9.346;2022-11-06T00:53:01;14.40;;;8.40;;
1613;SDS011;800;48.824;9.346;2022-11-06T00:55:27;31.07;;;10.20;;
1613;SDS011;800;48.824;9.346;2022-11-06T00:57:53;12.33;;;8.97;;
1613;SDS011;800;48.824;9.346;2022-11-06T01:00:18;17.10;;;9.23;;
1613;SDS011;800;48.824;9.346;2022-11-06T01:02:44;11.03;;;9.43;;
1613;SDS011;800;48.824;9.346;2022-11-06T01:05:11;45.57;;;10.40;;
1613;SDS011;800;48.824;9.346;2022-11-06T01:07:37;41.50;;;10.27;;
1613;SDS011;800;48.824;9.346;2022-11-06T01:10:03;50.90;;;10.43;;
1613;SDS011;800;48.824;9.346;2022-11-06T01:12:30;44.37;;;9.90;;
1613;SDS011;800;48.824;9.346;2022-11-06T01:14:56;53.90;;;9.90;;
1613;SDS011;800;48.824;9.346;2022-11-06T01:17:22;24.93;;;8.90;;
1613;SDS011;800;48.824;9.346;2022-11-06T01:19:48;42.77;;;10.03;;
1613;SDS011;800;48.824;9.346;2022-11-06T01:22:13;11.97;;;9.60;;
1613;SDS011;800;48.824;9.346;2022-11-06T01:24:39;73.27;;;11.53;;
1613;SDS011;800;48.824;9.346;2022-11-06T01:27:07;44.83;;;11.30;;
1613;SDS011;800;48.824;9.346;2022-11-06T01:29:33;19.50;;;8.67;;
1613;SDS011;800;48.824;9.346;2022-11-06T01:31:58;42.27;;;9.73;;
1613;SDS011;800;48.824;9.346;2022-11-06T01:34:24;14.63;;;9.83;;
1613;SDS011;800;48.824;9.346;2022-11-06T01:36:50;13.83;;;9.57;;
1613;SDS011;800;48.824;9.346;2022-11-06T01:39:16;72.23;;;11.33;;
1613;SDS011;800;48.824;9.346;2022-11-06T01:41:46;72.87;;;14.23;;
1613;SDS011;800;48.824;9.346;2022-11-06T01:46:38;57.33;;;9.77;;
1613;SDS011;800;48.824;9.346;2022-11-06T01:49:08;17.60;;;8.53;;
1613;SDS011;800;48.824;9.346;2022-11-06T01:51:38;24.37;;;8.53;;
1613;SDS011;800;48.824;9.346;2022-11-06T01:54:09;19.40;;;8.83;;
1613;SDS011;800;48.824;9.346;2022-11-06T01:56:36;10.60;;;9.13;;
1613;SDS011;800;48.824;9.346;2022-11-06T01:59:04;31.03;;;9.13;;
1613;SDS011;800;48.824;9.346;2022-11-06T02:01:32;51.23;;;10.13;;
1613;SDS011;800;48.824;9.346;2022-11-06T02:04:03;14.00;;;8.93;;
1613;SDS011;800;48.824;9.346;2022-11-06T02:06:33;108.03;;;15.60;;
1613;SDS011;800;48.824;9.346;2022-11-06T02:08:59;48.00;;;10.83;;
1613;SDS011;800;48.824;9.346;2022-11-06T02:11:25;40.73;;;9.90;;
1613;SDS011;800;48.824;9.346;2022-11-06T02:13:56;15.60;;;8.20;;
1613;SDS011;800;48.824;9.346;2022-11-06T02:27:57;52.73;;;8.80;;
1613;SDS011;800;48.824;9.346;2022-11-06T02:30:45;16.87;;;7.83;;
1613;SDS011;800;48.824;9.346;2022-11-06T02:33:22;62.40;;;9.50;;
1613;SDS011;800;48.824;9.346;2022-11-06T02:35:58;84.57;;;10.47;;
1613;SDS011;800;48.824;9.346;2022-11-06T02:38:33;54.50;;;9.30;;
1613;SDS011;800;48.824;9.346;2022-11-06T02:41:08;19.00;;;7.80;;
1613;SDS011;800;48.824;9.346;2022-11-06T02:43:38;40.73;;;10.37;;
1613;SDS011;800;48.824;9.346;2022-11-06T02:46:15;108.20;;;12.37;;
1613;SDS011;800;48.824;9.346;2022-11-06T02:48:49;81.73;;;10.13;;
1613;SDS011;800;48.824;9.346;2022-11-06T02:51:20;66.27;;;10.00;;
1613;SDS011;800;48.824;9.346;2022-11-06T02:53:49;82.83;;;11.20;;
1613;SDS011;800;48.824;9.346;2022-11-06T02:56:17;35.10;;;7.60;;
1613;SDS011;800;48.824;9.346;2022-11-06T02:58:54;76.93;;;10.80;;
1613;SDS011;800;48.824;9.346;2022-11-06T03:01:29;20.30;;;8.67;;
1613;SDS011;800;48.824;9.346;2022-11-06T03:04:04;63.90;;;10.07;;
1613;SDS011;800;48.824;9.346;2022-11-06T03:06:44;41.93;;;10.00;;
1613;SDS011;800;48.824;9.346;2022-11-06T03:09:18;49.17;;;8.87;;
1613;SDS011;800;48.824;9.346;2022-11-06T03:11:51;22.83;;;8.60;;
1613;SDS011;800;48.824;9.346;2022-11-06T03:15:08;15.70;;;8.30;;
1613;SDS011;800;48.824;9.346;2022-11-06T03:17:19;17.83;;;8.80;;
1613;SDS011;800;48.824;9.346;2022-11-06T03:20:22;19.30;;;8.40;;
1613;SDS011;800;48.824;9.346;2022-11-06T03:22:53;32.77;;;8.43;;
1613;SDS011;800;48.824;9.346;2022-11-06T03:25:31;32.50;;;9.33;;
1613;SDS011;800;48.824;9.346;2022-11-06T03:30:41;14.90;;;8.87;;
1613;SDS011;800;48.824;9.346;2022-11-06T03:33:15;14.30;;;8.43;;
1613;SDS011;800;48.824;9.346;2022-11-06T03:35:49;22.37;;;8.30;;
1613;SDS011;800;48.824;9.346;2022-11-06T03:38:30;40.37;;;8.70;;
1613;SDS011;800;48.824;9.346;2022-11-06T03:41:07;22.37;;;7.47;;
1613;SDS011;800;48.824;9.346;2022-11-06T03:43:37;32.83;;;10.03;;
1613;SDS011;800;48.824;9.346;2022-11-06T03:46:09;18.37;;;7.80;;
1613;SDS011;800;48.824;9.346;2022-11-06T03:48:40;21.00;;;8.30;;
1613;SDS011;800;48.824;9.346;2022-11-06T03:51:12;42.97;;;8.77;;
1613;SDS011;800;48.824;9.346;2022-11-06T03:53:44;22.80;;;8.47;;
1613;SDS011;800;48.824;9.346;2022-11-06T03:56:24;24.07;;;8.77;;
1613;SDS011;800;48.824;9.346;2022-11-06T03:58:59;9.27;;;7.60;;
1613;SDS011;800;48.824;9.346;2022-11-06T04:01:30;9.00;;;7.20;;
1613;SDS011;800;48.824;9.346;2022-11-06T04:04:03;8.53;;;7.47;;
1613;SDS011;800;48.824;9.346;2022-11-06T04:06:36;20.10;;;7.70;;
1613;SDS011;800;48.824;9.346;2022-11-06T04:09:06;12.57;;;6.00;;
1613;SDS011;800;48.824;9.346;2022-11-06T04:11:54;18.53;;;7.07;;
1613;SDS011;800;48.824;9.346;2022-11-06T04:14:41;10.40;;;6.77;;
1613;SDS011;800;48.824;9.346;2022-11-06T04:17:11;12.23;;;8.03;;
1613;SDS011;800;48.824;9.346;2022-11-06T04:19:38;15.43;;;6.90;;
1613;SDS011;800;48.824;9.346;2022-11-06T04:27:57;17.23;;;7.10;;
1613;SDS011;800;48.824;9.346;2022-11-06T04:30:29;18.67;;;7.10;;
1613;SDS011;800;48.824;9.346;2022-11-06T04:36:16;26.63;;;6.27;;
1613;SDS011;800;48.824;9.346;2022-11-06T04:41:44;19.07;;;6.17;;
1613;SDS011;800;48.824;9.346;2022-11-06T04:44:32;18.03;;;7.33;;
1613;SDS011;800;48.824;9.346;2022-11-06T04:47:07;25.03;;;7.67;;
1613;SDS011;800;48.824;9.346;2022-11-06T04:49:36;18.50;;;6.10;;
1613;SDS011;800;48.824;9.346;2022-11-06T04:52:05;11.57;;;6.40;;
1613;SDS011;800;48.824;9.346;2022-11-06T04:54:33;25.67;;;6.40;;
1613;SDS011;800;48.824;9.346;2022-11-06T04:57:00;33.37;;;7.00;;
1613;SDS011;800;48.824;9.346;2022-11-06T04:59:26;8.10;;;5.70;;
1613;SDS011;800;48.824;9.346;2022-11-06T05:01:53;16.17;;;6.20;;
1613;SDS011;800;48.824;9.346;2022-11-06T05:04:18;19.73;;;7.00;;
1613;SDS011;800;48.824;9.346;2022-11-06T05:06:44;53.53;;;7.63;;
1613;SDS011;800;48.824;9.346;2022-11-06T05:09:09;46.40;;;7.90;;
1613;SDS011;800;48.824;9.346;2022-11-06T05:11:35;93.70;;;9.50;;
1613;SDS011;800;48.824;9.346;2022-11-06T05:14:02;86.73;;;9.40;;
1613;SDS011;800;48.824;9.346;2022-11-06T05:16:28;22.63;;;6.20;;
1613;SDS011;800;48.824;9.346;2022-11-06T05:18:53;93.23;;;12.50;;
1613;SDS011;800;48.824;9.346;2022-11-06T05:21:19;74.07;;;7.53;;
1613;SDS011;800;48.824;9.346;2022-11-06T05:24:03;15.17;;;6.27;;
1613;SDS011;800;48.824;9.346;2022-11-06T05:26:29;9.47;;;5.90;;
1613;SDS011;800;48.824;9.346;2022-11-06T05:28:55;16.70;;;6.80;;
1613;SDS011;800;48.824;9.346;2022-11-06T05:31:20;9.70;;;6.03;;
1613;SDS011;800;48.824;9.346;2022-11-06T05:33:46;6.33;;;5.70;;
1613;SDS011;800;48.824;9.346;2022-11-06T05:36:12;39.43;;;8.80;;
1613;SDS011;800;48.824;9.346;2022-11-06T05:38:37;40.80;;;7.13;;
1613;SDS011;800;48.824;9.346;2022-11-06T05:41:03;34.03;;;5.90;;
1613;SDS011;800;48.824;9.346;2022-11-06T05:43:29;22.67;;;6.53;;
1613;SDS011;800;48.824;9.346;2022-11-06T05:45:54;9.23;;;5.50;;
1613;SDS011;800;48.824;9.346;2022-11-06T05:48:20;51.00;;;7.20;;
1613;SDS011;800;48.824;9.346;2022-11-06T05:50:45;38.77;;;7.03;;
1613;SDS011;800;48.824;9.346;2022-11-06T05:53:11;9.90;;;6.17;;
1613;SDS011;800;48.824;9.346;2022-11-06T05:55:37;13.03;;;6.33;;
1613;SDS011;800;48.824;9.346;2022-11-06T05:58:03;42.73;;;7.37;;
1613;SDS011;800;48.824;9.346;2022-11-06T06:00:28;15.97;;;6.37;;
1613;SDS011;800;48.824;9.346;2022-11-06T06:02:54;107.63;;;9.07;;
1613;SDS011;800;48.824;9.346;2022-11-06T06:05:19;49.03;;;7.30;;
1613;SDS011;800;48.824;9.346;2022-11-06T06:07:45;24.87;;;6.80;;
1613;SDS011;800;48.824;9.346;2022-11-06T06:10:11;12.93;;;6.53;;
1613;SDS011;800;48.824;9.346;2022-11-06T06:12:36;66.53;;;8.10;;
1613;SDS011;800;48.824;9.346;2022-11-06T06:15:03;15.50;;;5.80;;
1613;SDS011;800;48.824;9.346;2022-11-06T06:17:30;121.87;;;9.00;;
1613;SDS011;800;48.824;9.346;2022-11-06T06:19:55;17.60;;;6.20;;
1613;SDS011;800;48.824;9.346;2022-11-06T06:22:21;11.57;;;5.77;;
1613;SDS011;800;48.824;9.346;2022-11-06T06:24:47;6.90;;;5.17;;
1613;SDS011;800;48.824;9.346;2022-11-06T06:27:12;14.33;;;6.23;;
1613;SDS011;800;48.824;9.346;2022-11-06T06:29:38;19.13;;;7.07;;
1613;SDS011;800;48.824;9.346;2022-11-06T06:32:03;8.63;;;6.27;;
1613;SDS011;800;48.824;9.346;2022-11-06T06:34:29;15.50;;;6.73;;
1613;SDS011;800;48.824;9.346;2022-11-06T06:36:55;30.70;;;6.03;;
1613;SDS011;800;48.824;9.346;2022-11-06T06:39:20;14.07;;;4.87;;
1613;SDS011;800;48.824;9.346;2022-11-06T06:41:46;17.97;;;6.47;;
1613;SDS011;800;48.824;9.346;2022-11-06T06:44:13;9.83;;;6.77;;
1613;SDS011;800;48.824;9.346;2022-11-06T06:46:39;12.10;;;6.80;;
1613;SDS011;800;48.824;9.346;2022-11-06T06:49:05;12.17;;;6.47;;
1613;SDS011;800;48.824;9.346;2022-11-06T06:51:31;8.57;;;4.47;;
1613;SDS011;800;48.824;9.346;2022-11-06T06:53:56;10.00;;;5.87;;
1613;SDS011;800;48.824;9.346;2022-11-06T06:56:22;5.40;;;4.90;;
1613;SDS011;800;48.824;9.346;2022-11-06T06:58:47;7.37;;;4.63;;
1613;SDS011;800;48.824;9.346;2022-11-06T07:01:13;6.87;;;5.40;;
1613;SDS011;800;48.824;9.346;2022-11-06T07:03:39;11.80;;;5.37;;
1613;SDS011;800;48.824;9.346;2022-11-06T07:06:05;14.27;;;6.03;;
1613;SDS011;800;48.824;9.346;2022-11-06T07:08:31;15.73;;;6.00;;
1613;SDS011;800;48.824;9.346;2022-11-06T07:11:04;10.17;;;5.40;;
1613;SDS011;800;48.824;9.346;2022-11-06T07:13:33;29.83;;;6.13;;
1613;SDS011;800;48.824;9.346;2022-11-06T07:16:01;11.87;;;4.97;;
1613;SDS011;800;48.824;9.346;2022-11-06T07:18:28;9.70;;;5.60;;
1613;SDS011;800;48.824;9.346;2022-11-06T07:20:54;11.70;;;5.20;;
1613;SDS011;800;48.824;9.346;2022-11-06T07:23:19;10.40;;;4.30;;
1613;SDS011;800;48.824;9.346;2022-11-06T07:25:50;6.50;;;4.70;;
1613;SDS011;800;48.824;9.346;2022-11-06T07:28:17;10.53;;;5.00;;
1613;SDS011;800;48.824;9.346;2022-11-06T07:30:42;8.53;;;4.90;;
1613;SDS011;800;48.824;9.346;2022-11-06T07:33:08;14.13;;;5.60;;
1613;SDS011;800;48.824;9.346;2022-11-06T07:35:34;16.73;;;5.03;;
1613;SDS011;800;48.824;9.346;2022-11-06T07:38:01;4.90;;;4.50;;
1613;SDS011;800;48.824;9.346;2022-11-06T07:40:29;10.63;;;4.97;;
1613;SDS011;800;48.824;9.346;2022-11-06T07:42:54;12.33;;;5.13;;
1613;SDS011;800;48.824;9.346;2022-11-06T07:45:20;7.57;;;5.50;;
1613;SDS011;800;48.824;9.346;2022-11-06T07:47:45;7.57;;;5.37;;
1613;SDS011;800;48.824;9.346;2022-11-06T07:50:11;6.70;;;5.03;;
1613;SDS011;800;48.824;9.346;2022-11-06T07:52:36;6.10;;;5.50;;
1613;SDS011;800;48.824;9.346;2022-11-06T07:55:02;6.67;;;4.93;;
1613;SDS011;800;48.824;9.346;2022-11-06T07:57:28;8.40;;;5.77;;
1613;SDS011;800;48.824;9.346;2022-11-06T07:59:53;6.03;;;5.37;;
1613;SDS011;800;48.824;9.346;2022-11-06T08:02:19;6.33;;;5.73;;
1613;SDS011;800;48.824;9.346;2022-11-06T08:04:45;7.90;;;5.83;;
1613;SDS011;800;48.824;9.346;2022-11-06T08:07:10;6.23;;;4.90;;
1613;SDS011;800;48.824;9.346;2022-11-06T08:09:36;5.17;;;4.53;;
1613;SDS011;800;48.824;9.346;2022-11-06T08:12:01;6.70;;;5.73;;
1613;SDS011;800;48.824;9.346;2022-11-06T08:14:27;6.83;;;5.83;;
1613;SDS011;800;48.824;9.346;2022-11-06T08:16:52;7.60;;;5.67;;
1613;SDS011;800;48.824;9.346;2022-11-06T08:19:19;7.03;;;6.00;;
1613;SDS011;800;48.824;9.346;2022-11-06T08:21:45;6.93;;;6.20;;
1613;SDS011;800;48.824;9.346;2022-11-06T08:24:10;7.87;;;6.53;;
1613;SDS011;800;48.824;9.346;2022-11-06T08:26:36;7.70;;;6.50;;
1613;SDS011;800;48.824;9.346;2022-11-06T08:29:01;6.50;;;5.87;;
1613;SDS011;800;48.824;9.346;2022-11-06T08:31:27;6.57;;;5.63;;
1613;SDS011;800;48.824;9.346;2022-11-06T08:33:53;6.17;;;5.57;;
1613;SDS011;800;48.824;9.346;2022-11-06T08:36:19;6.43;;;5.80;;
1613;SDS011;800;48.824;9.346;2022-11-06T08:38:47;7.70;;;6.27;;
1613;SDS011;800;48.824;9.346;2022-11-06T08:41:13;7.40;;;6.50;;
1613;SDS011;800;48.824;9.346;2022-11-06T08:43:39;7.97;;;6.77;;
1613;SDS011;800;48.824;9.346;2022-11-06T08:46:05;9.23;;;6.03;;
1613;SDS011;800;48.824;9.346;2022-11-06T08:48:32;7.57;;;6.23;;
1613;SDS011;800;48.824;9.346;2022-11-06T08:50:58;10.07;;;7.67;;
1613;SDS011;800;48.824;9.346;2022-11-06T08:53:24;10.37;;;7.10;;
1613;SDS011;800;48.824;9.346;2022-11-06T08:55:50;12.10;;;7.53;;
1613;SDS011;800;48.824;9.346;2022-11-06T08:58:16;9.93;;;6.63;;
1613;SDS011;800;48.824;9.346;2022-11-06T09:00:42;7.70;;;6.60;;
1613;SDS011;800;48.824;9.346;2022-11-06T09:03:14;10.00;;;7.53;;
1613;SDS011;800;48.824;9.346;2022-11-06T09:05:42;8.87;;;6.43;;
1613;SDS011;800;48.824;9.346;2022-11-06T09:08:08;9.17;;;6.97;;
1613;SDS011;800;48.824;9.346;2022-11-06T09:10:35;7.73;;;6.73;;
1613;SDS011;800;48.824;9.346;2022-11-06T09:13:02;7.50;;;6.80;;
1613;SDS011;800;48.824;9.346;2022-11-06T09:15:28;8.80;;;7.03;;
1613;SDS011;800;48.824;9.346;2022-11-06T09:17:54;9.60;;;7.20;;
1613;SDS011;800;48.824;9.346;2022-11-06T09:20:20;8.90;;;6.70;;
1613;SDS011;800;48.824;9.346;2022-11-06T09:22:47;8.43;;;7.10;;
1613;SDS011;800;48.824;9.346;2022-11-06T09:25:13;8.33;;;6.70;;
1613;SDS011;800;48.824;9.346;2022-11-06T09:27:42;11.23;;;7.17;;
1613;SDS011;800;48.824;9.346;2022-11-06T09:30:10;7.80;;;7.00;;
1613;SDS011;800;48.824;9.346;2022-11-06T09:32:37;9.47;;;7.90;;
1613;SDS011;800;48.824;9.346;2022-11-06T09:35:03;7.67;;;6.87;;
1613;SDS011;800;48.824;9.346;2022-11-06T09:37:29;9.07;;;7.30;;
1613;SDS011;800;48.824;9.346;2022-11-06T09:39:55;10.57;;;8.17;;
1613;SDS011;800;48.824;9.346;2022-11-06T09:47:36;8.00;;;7.10;;
1613;SDS011;800;48.824;9.346;2022-11-06T09:50:11;8.90;;;8.00;;
1613;SDS011;800;48.824;9.346;2022-11-06T09:52:42;7.43;;;6.73;;
1613;SDS011;800;48.824;9.346;2022-11-06T09:55:15;9.27;;;7.63;;
1613;SDS011;800;48.824;9.346;2022-11-06T10:00:14;7.97;;;7.20;;
1613;SDS011;800;48.824;9.346;2022-11-06T10:02:46;8.30;;;7.40;;
1613;SDS011;800;48.824;9.346;2022-11-06T10:13:44;7.53;;;6.70;;
1613;SDS011;800;48.824;9.346;2022-11-06T10:21:47;7.27;;;6.57;;
1613;SDS011;800;48.824;9.346;2022-11-06T10:24:55;8.77;;;6.83;;
1613;SDS011;800;48.824;9.346;2022-11-06T10:30:10;6.97;;;5.80;;
1613;SDS011;800;48.824;9.346;2022-11-06T10:37:57;7.50;;;6.80;;
1613;SDS011;800;48.824;9.346;2022-11-06T10:40:24;7.43;;;6.73;;
1613;SDS011;800;48.824;9.346;2022-11-06T10:45:31;6.00;;;5.40;;
1613;SDS011;800;48.824;9.346;2022-11-06T10:48:01;8.53;;;6.00;;
1613;SDS011;800;48.824;9.346;2022-11-06T10:50:45;7.93;;;5.60;;
1613;SDS011;800;48.824;9.346;2022-11-06T10:56:30;5.53;;;5.03;;
1613;SDS011;800;48.824;9.346;2022-11-06T10:59:16;4.93;;;4.43;;
1613;SDS011;800;48.824;9.346;2022-11-06T11:01:42;5.00;;;4.60;;
1613;SDS011;800;48.824;9.346;2022-11-06T11:04:08;5.07;;;4.60;;
1613;SDS011;800;48.824;9.346;2022-11-06T11:06:33;5.00;;;4.40;;
1613;SDS011;800;48.824;9.346;2022-11-06T11:09:02;4.27;;;3.97;;
1613;SDS011;800;48.824;9.346;2022-11-06T11:11:50;4.60;;;4.20;;
1613;SDS011;800;48.824;9.346;2022-11-06T11:14:21;4.80;;;4.40;;
1613;SDS011;800;48.824;9.346;2022-11-06T11:17:00;5.27;;;4.80;;
1613;SDS011;800;48.824;9.346;2022-11-06T11:24:27;5.17;;;4.37;;
1613;SDS011;800;48.824;9.346;2022-11-06T11:26:54;5.30;;;4.50;;
1613;SDS011;800;48.824;9.346;2022-11-06T11:29:28;4.23;;;3.83;;
1613;SDS011;800;48.824;9.346;2022-11-06T11:32:02;5.03;;;4.57;;
1613;SDS011;800;48.824;9.346;2022-11-06T11:34:31;4.97;;;4.50;;
1613;SDS011;800;48.824;9.346;2022-11-06T11:39:33;4.37;;;4.07;;
1613;SDS011;800;48.824;9.346;2022-11-06T11:42:43;4.07;;;3.67;;
1613;SDS011;800;48.824;9.346;2022-11-06T11:45:05;3.70;;;3.40;;
1613;SDS011;800;48.824;9.346;2022-11-06T11:47:37;3.57;;;3.27;;
1613;SDS011;800;48.824;9.346;2022-11-06T11:52:48;3.80;;;3.50;;
1613;SDS011;800;48.824;9.346;2022-11-06T11:55:19;3.03;;;2.73;;
1613;SDS011;800;48.824;9.346;2022-11-06T11:57:48;3.53;;;3.23;;
1613;SDS011;800;48.824;9.346;2022-11-06T12:00:15;3.80;;;3.50;;
1613;SDS011;800;48.824;9.346;2022-11-06T12:02:46;3.80;;;3.40;;
1613;SDS011;800;48.824;9.346;2022-11-06T12:05:23;2.90;;;2.70;;
1613;SDS011;800;48.824;9.346;2022-11-06T12:07:57;3.00;;;2.80;;
1613;SDS011;800;48.824;9.346;2022-11-06T12:10:34;3.40;;;3.13;;
1613;SDS011;800;48.824;9.346;2022-11-06T12:13:04;3.37;;;3.17;;
1613;SDS011;800;48.824;9.346;2022-11-06T12:16:00;3.63;;;3.33;;
1613;SDS011;800;48.824;9.346;2022-11-06T12:18:34;3.07;;;2.77;;
1613;SDS011;800;48.824;9.346;2022-11-06T12:23:46;3.40;;;3.10;;
1613;SDS011;800;48.824;9.346;2022-11-06T12:26:36;3.90;;;3.60;;
1613;SDS011;800;48.824;9.346;2022-11-06T12:31:47;3.53;;;3.03;;
1613;SDS011;800;48.824;9.346;2022-11-06T12:34:27;3.03;;;2.83;;
1613;SDS011;800;48.824;9.346;2022-11-06T12:42:46;2.83;;;2.63;;
1613;SDS011;800;48.824;9.346;2022-11-06T12:45:31;2.73;;;2.53;;
1613;SDS011;800;48.824;9.346;2022-11-06T12:48:10;3.90;;;2.97;;
1613;SDS011;800;48.824;9.346;2022-11-06T12:50:50;2.90;;;2.60;;
1613;SDS011;800;48.824;9.346;2022-11-06T12:56:42;2.80;;;2.60;;
1613;SDS011;800;48.824;9.346;2022-11-06T12:59:40;2.70;;;2.50;;
1613;SDS011;800;48.824;9.346;2022-11-06T13:05:14;3.20;;;3.00;;
1613;SDS011;800;48.824;9.346;2022-11-06T13:18:47;3.83;;;3.53;;
1613;SDS011;800;48.824;9.346;2022-11-06T13:21:20;4.40;;;3.57;;
1613;SDS011;800;48.824;9.346;2022-11-06T13:24:12;2.93;;;2.73;;
1613;SDS011;800;48.824;9.346;2022-11-06T13:26:46;3.23;;;2.93;;
1613;SDS011;800;48.824;9.346;2022-11-06T13:29:17;3.50;;;3.20;;
1613;SDS011;800;48.824;9.346;2022-11-06T13:31:47;3.67;;;3.30;;
1613;SDS011;800;48.824;9.346;2022-11-06T13:34:21;5.27;;;2.73;;
1613;SDS011;800;48.824;9.346;2022-11-06T13:37:14;3.27;;;3.00;;
1613;SDS011;800;48.824;9.346;2022-11-06T13:42:30;3.20;;;2.63;;
1613;SDS011;800;48.824;9.346;2022-11-06T13:45:02;3.10;;;2.80;;
1613;SDS011;800;48.824;9.346;2022-11-06T13:53:00;2.43;;;2.23;;
1613;SDS011;800;48.824;9.346;2022-11-06T13:58:41;3.23;;;3.03;;
1613;SDS011;800;48.824;9.346;2022-11-06T14:06:37;3.10;;;2.90;;
1613;SDS011;800;48.824;9.346;2022-11-06T14:09:08;3.10;;;2.90;;
1613;SDS011;800;48.824;9.346;2022-11-06T14:11:41;3.50;;;3.20;;
1613;SDS011;800;48.824;9.346;2022-11-06T14:14:24;3.57;;;3.27;;
1613;SDS011;800;48.824;9.346;2022-11-06T14:17:11;3.23;;;2.93;;
1613;SDS011;800;48.824;9.346;2022-11-06T14:22:29;3.00;;;2.80;;
1613;SDS011;800;48.824;9.346;2022-11-06T14:24:55;3.67;;;3.30;;
1613;SDS011;800;48.824;9.346;2022-11-06T14:32:37;3.93;;;3.53;;
1613;SDS011;800;48.824;9.346;2022-11-06T14:37:53;3.70;;;3.40;;
1613;SDS011;800;48.824;9.346;2022-11-06T14:40:39;3.37;;;3.10;;
1613;SDS011;800;48.824;9.346;2022-11-06T14:43:16;4.20;;;2.97;;
1613;SDS011;800;48.824;9.346;2022-11-06T14:46:19;3.60;;;3.30;;
1613;SDS011;800;48.824;9.346;2022-11-06T14:48:42;3.70;;;3.40;;
1613;SDS011;800;48.824;9.346;2022-11-06T14:51:11;5.07;;;3.40;;
1613;SDS011;800;48.824;9.346;2022-11-06T14:53:49;3.40;;;3.10;;
1613;SDS011;800;48.824;9.346;2022-11-06T14:56:30;3.50;;;3.20;;
1613;SDS011;800;48.824;9.346;2022-11-06T14:59:05;4.60;;;4.20;;
1613;SDS011;800;48.824;9.346;2022-11-06T15:01:39;3.93;;;3.63;;
1613;SDS011;800;48.824;9.346;2022-11-06T15:04:17;6.43;;;4.43;;
1613;SDS011;800;48.824;9.346;2022-11-06T15:06:46;4.90;;;4.27;;
1613;SDS011;800;48.824;9.346;2022-11-06T15:09:14;4.03;;;3.70;;
1613;SDS011;800;48.824;9.346;2022-11-06T15:12:09;6.23;;;4.23;;
1613;SDS011;800;48.824;9.346;2022-11-06T15:17:09;4.63;;;3.90;;
1613;SDS011;800;48.824;9.346;2022-11-06T15:19:37;3.70;;;3.40;;
1613;SDS011;800;48.824;9.346;2022-11-06T15:22:19;4.90;;;3.93;;
1613;SDS011;800;48.824;9.346;2022-11-06T15:24:56;4.87;;;4.37;;
1613;SDS011;800;48.824;9.346;2022-11-06T15:27:37;5.00;;;4.50;;
1613;SDS011;800;48.824;9.346;2022-11-06T15:30:08;4.70;;;4.20;;
1613;SDS011;800;48.824;9.346;2022-11-06T15:32:39;5.37;;;4.93;;
1613;SDS011;800;48.824;9.346;2022-11-06T15:35:13;4.50;;;4.10;;
1613;SDS011;800;48.824;9.346;2022-11-06T15:37:51;5.23;;;4.37;;
1613;SDS011;800;48.824;9.346;2022-11-06T15:40:33;4.93;;;3.83;;
1613;SDS011;800;48.824;9.346;2022-11-06T15:43:01;5.17;;;4.70;;
1613;SDS011;800;48.824;9.346;2022-11-06T15:48:38;5.20;;;4.70;;
1613;SDS011;800;48.824;9.346;2022-11-06T15:51:18;5.83;;;5.23;;
1613;SDS011;800;48.824;9.346;2022-11-06T15:53:51;5.40;;;4.90;;
1613;SDS011;800;48.824;9.346;2022-11-06T15:56:18;5.77;;;5.27;;
1613;SDS011;800;48.824;9.346;2022-11-06T15:59:03;5.63;;;5.20;;
1613;SDS011;800;48.824;9.346;2022-11-06T16:01:31;4.90;;;4.50;;
1613;SDS011;800;48.824;9.346;2022-11-06T16:03:57;6.30;;;5.40;;
1613;SDS011;800;48.824;9.346;2022-11-06T16:06:26;5.93;;;5.43;;
1613;SDS011;800;48.824;9.346;2022-11-06T16:08:53;5.87;;;5.27;;
1613;SDS011;800;48.824;9.346;2022-11-06T16:11:20;5.77;;;5.23;;
1613;SDS011;800;48.824;9.346;2022-11-06T16:13:46;5.63;;;5.13;;
1613;SDS011;800;48.824;9.346;2022-11-06T16:16:46;5.60;;;5.10;;
1613;SDS011;800;48.824;9.346;2022-11-06T16:19:42;5.20;;;4.70;;
1613;SDS011;800;48.824;9.346;2022-11-06T16:22:06;5.40;;;4.90;;
1613;SDS011;800;48.824;9.346;2022-11-06T16:24:40;5.50;;;4.90;;
1613;SDS011;800;48.824;9.346;2022-11-06T16:27:07;6.20;;;5.60;;
1613;SDS011;800;48.824;9.346;2022-11-06T16:29:35;5.47;;;4.97;;
1613;SDS011;800;48.824;9.346;2022-11-06T16:39:39;6.40;;;5.80;;
1613;SDS011;800;48.824;9.346;2022-11-06T16:44:43;6.97;;;6.37;;
1613;SDS011;800;48.824;9.346;2022-11-06T16:47:17;7.33;;;6.20;;
1613;SDS011;800;48.824;9.346;2022-11-06T16:49:44;7.00;;;6.30;;
1613;SDS011;800;48.824;9.346;2022-11-06T16:54:50;9.80;;;6.03;;
1613;SDS011;800;48.824;9.346;2022-11-06T16:57:18;7.20;;;6.50;;
1613;SDS011;800;48.824;9.346;2022-11-06T17:00:06;7.77;;;6.97;;
1613;SDS011;800;48.824;9.346;2022-11-06T17:05:27;7.17;;;6.30;;
1613;SDS011;800;48.824;9.346;2022-11-06T17:15:53;7.27;;;6.60;;
1613;SDS011;800;48.824;9.346;2022-11-06T17:18:23;6.80;;;6.10;;
1613;SDS011;800;48.824;9.346;2022-11-06T17:20:57;7.20;;;6.50;;
1613;SDS011;800;48.824;9.346;2022-11-06T17:23:25;6.63;;;6.13;;
1613;SDS011;800;48.824;9.346;2022-11-06T17:25:52;6.03;;;5.53;;
1613;SDS011;800;48.824;9.346;2022-11-06T17:28:20;6.13;;;5.53;;
1613;SDS011;800;48.824;9.346;2022-11-06T17:30:46;8.00;;;6.90;;
1613;SDS011;800;48.824;9.346;2022-11-06T17:33:12;6.23;;;5.67;;
1613;SDS011;800;48.824;9.346;2022-11-06T17:35:38;7.43;;;6.40;;
1613;SDS011;800;48.824;9.346;2022-11-06T17:38:04;7.00;;;6.30;;
1613;SDS011;800;48.824;9.346;2022-11-06T17:40:29;6.10;;;5.50;;
1613;SDS011;800;48.824;9.346;2022-11-06T17:42:55;6.20;;;5.60;;
1613;SDS011;800;48.824;9.346;2022-11-06T17:45:21;6.57;;;5.97;;
1613;SDS011;800;48.824;9.346;2022-11-06T17:47:46;7.03;;;6.43;;
1613;SDS011;800;48.824;9.346;2022-11-06T17:50:12;6.80;;;6.20;;
1613;SDS011;800;48.824;9.346;2022-11-06T17:52:38;6.50;;;5.90;;
1613;SDS011;800;48.824;9.346;2022-11-06T17:55:04;7.70;;;6.00;;
1613;SDS011;800;48.824;9.346;2022-11-06T17:57:30;5.63;;;5.13;;
1613;SDS011;800;48.824;9.346;2022-11-06T17:59:56;7.73;;;6.53;;
1613;SDS011;800;48.824;9.346;2022-11-06T18:02:21;8.37;;;7.50;;
1613;SDS011;800;48.824;9.346;2022-11-06T18:04:47;6.27;;;5.60;;
1613;SDS011;800;48.824;9.346;2022-11-06T18:07:15;7.67;;;6.93;;
1613;SDS011;800;48.824;9.346;2022-11-06T18:09:41;6.70;;;5.60;;
1613;SDS011;800;48.824;9.346;2022-11-06T18:12:08;6.23;;;5.70;;
1613;SDS011;800;48.824;9.346;2022-11-06T18:14:35;6.13;;;5.53;;
1613;SDS011;800;48.824;9.346;2022-11-06T18:17:00;7.03;;;6.37;;
1613;SDS011;800;48.824;9.346;2022-11-06T18:19:26;6.73;;;6.13;;
1613;SDS011;800;48.824;9.346;2022-11-06T18:21:52;7.03;;;6.33;;